Portada
METAR-TAF:

METAR-TAF

Aeropuertos :

Bonaire, Antillas Neerlandesas

Aeropuerto Internacional Flamingo

latitud: 12-09N, longitud: 068-17W, altitud: 6 m

Observación

El informe se hizo hace 16 minutos, a las 22:55 UTC
Viento 16 kt del este
Temperatura 27°C
Humedad 79%
Presión 1011 hPa
Visibilidad 10 km o más

METAR: TNCB 212255Z AUTO 10016KT 9999 // FEW015/// 27/23 Q1011 RE//

Hora: 19:11 (23:11 UTC)

Pronóstico

El informe se hizo hace 6 horas y 42 minutos, a las 16:29 UTC
Pronóstico válido del 21 a las 18 UTC al 22 a las 24 UTC
Viento 16 kt del este
Visibilidad 10 km o más
Nubes dispersas a una altura de 2000 ft

TAF: TNCB 211629Z 2118/2224 09016KT 9999 SCT020

Observaciones y pronósticos meteorológicos de más de 4000 aeropuertos (mensajes METAR y TAF).

Los puntos amarillos y rojos representan las estaciones disponibles.

Ponga el ratón en el punto deseado para ver el nombre de la estación.

Haga clic para ver las observaciones y los pronósticos meteorológicos.

Para cambiar el mapa : haga clic en los botones verdes con una cruz de color negro para hacer un zoom, en el botón verde con un guión para alejar o en las flechas verdes para mapas adyacentes.


METAR-TAF: